createdAt,value
2022-08-19T00:02:50.454Z,27.22
2022-08-19T00:05:53.630Z,27.16
2022-08-19T00:08:56.877Z,27.15
2022-08-19T00:12:01.922Z,27.09
2022-08-19T00:15:06.227Z,27.07
2022-08-19T00:18:15.440Z,27.04
2022-08-19T00:21:19.072Z,27.02
2022-08-19T00:24:22.566Z,26.98
2022-08-19T00:27:27.193Z,26.86
2022-08-19T00:30:31.164Z,26.93
2022-08-19T00:33:35.294Z,26.96
2022-08-19T00:36:38.640Z,27.16
2022-08-19T00:39:41.832Z,27.23
2022-08-19T00:42:47.032Z,27.17
2022-08-19T00:45:51.002Z,27.30
2022-08-19T00:48:54.134Z,27.29
2022-08-19T00:52:03.451Z,27.21
2022-08-19T00:55:12.794Z,27.02
2022-08-19T00:58:22.356Z,26.39
2022-08-19T01:01:25.466Z,26.31
2022-08-19T01:04:28.631Z,26.28
2022-08-19T01:07:37.589Z,26.42
2022-08-19T01:10:45.516Z,26.50
2022-08-19T01:13:51.925Z,26.57
2022-08-19T01:16:57.974Z,26.69
2022-08-19T01:20:01.136Z,26.69
2022-08-19T01:23:06.070Z,26.73
2022-08-19T01:26:09.163Z,26.80
2022-08-19T01:29:13.010Z,26.95
2022-08-19T01:32:32.115Z,27.00
2022-08-19T01:35:38.318Z,27.10
2022-08-19T01:38:44.946Z,27.16
2022-08-19T01:41:48.919Z,27.17
2022-08-19T01:44:51.964Z,26.91
2022-08-19T01:48:01.952Z,27.11
2022-08-19T01:51:05.990Z,27.10
2022-08-19T01:54:11.120Z,26.93
2022-08-19T01:57:16.649Z,26.87
2022-08-19T02:00:22.455Z,26.94
2022-08-19T02:03:26.130Z,26.92
2022-08-19T02:06:29.749Z,26.66
2022-08-19T02:09:34.874Z,26.75
2022-08-19T02:12:37.995Z,26.71
2022-08-19T02:15:41.407Z,26.65
2022-08-19T02:18:44.882Z,26.66
2022-08-19T02:21:48.398Z,26.80
2022-08-19T02:24:52.910Z,26.92
2022-08-19T02:27:56.162Z,27.00
2022-08-19T02:31:01.748Z,27.07
2022-08-19T02:34:04.945Z,27.11
2022-08-19T02:37:28.270Z,27.06
2022-08-19T02:40:34.919Z,27.16
2022-08-19T02:43:38.191Z,27.21
2022-08-19T02:46:41.778Z,27.09
2022-08-19T02:49:44.839Z,27.04
2022-08-19T02:52:47.954Z,26.84
2022-08-19T02:55:52.918Z,26.49
2022-08-19T02:58:57.619Z,26.56
2022-08-19T03:02:00.771Z,26.15
2022-08-19T03:05:05.351Z,25.66
2022-08-19T03:08:08.958Z,25.27
2022-08-19T03:11:17.576Z,25.30
2022-08-19T03:14:20.641Z,25.64
2022-08-19T03:17:23.766Z,25.94
2022-08-19T03:20:27.496Z,26.26
2022-08-19T03:23:30.662Z,26.51
2022-08-19T03:26:35.942Z,26.70
2022-08-19T03:29:43.109Z,26.88
2022-08-19T03:32:46.528Z,26.97
2022-08-19T03:36:09.483Z,26.76
2022-08-19T03:39:13.040Z,26.82
2022-08-19T03:42:32.824Z,26.92
2022-08-19T03:45:41.164Z,26.84
2022-08-19T03:48:46.149Z,26.80
2022-08-19T03:51:51.257Z,26.74
2022-08-19T03:54:54.334Z,26.77
2022-08-19T03:57:59.437Z,26.70
2022-08-19T04:01:02.636Z,26.69
2022-08-19T04:04:06.167Z,26.69
2022-08-19T04:07:11.997Z,26.64
2022-08-19T04:10:15.059Z,26.63
2022-08-19T04:13:20.444Z,26.61
2022-08-19T04:16:25.108Z,26.60
2022-08-19T04:19:39.642Z,26.80
2022-08-19T04:22:42.851Z,26.94
2022-08-19T04:25:46.768Z,27.07
2022-08-19T04:28:52.576Z,27.04
2022-08-19T04:31:57.611Z,27.10
2022-08-19T04:35:02.176Z,27.09
2022-08-19T04:38:21.525Z,27.11
2022-08-19T04:41:42.875Z,27.05
2022-08-19T04:44:47.385Z,27.07
2022-08-19T04:47:57.948Z,26.93
2022-08-19T04:51:15.243Z,26.80
2022-08-19T04:54:37.947Z,26.63
2022-08-19T04:57:42.306Z,26.45
2022-08-19T05:00:46.887Z,26.61
2022-08-19T05:03:50.195Z,26.38
2022-08-19T05:06:54.379Z,26.70
2022-08-19T05:10:03.231Z,26.71
2022-08-19T05:13:06.719Z,26.70
2022-08-19T05:16:13.034Z,26.44
2022-08-19T05:19:34.004Z,26.38
2022-08-19T05:22:38.097Z,26.18
2022-08-19T05:25:42.031Z,25.90
2022-08-19T05:28:45.483Z,25.80
2022-08-19T05:31:51.489Z,25.69
2022-08-19T05:34:54.605Z,25.59
2022-08-19T05:37:59.023Z,25.60
2022-08-19T05:41:02.301Z,25.73
2022-08-19T05:44:10.190Z,25.76
2022-08-19T05:47:16.323Z,25.99
2022-08-19T05:50:19.514Z,26.09
2022-08-19T05:53:22.719Z,26.15
2022-08-19T05:56:26.035Z,26.32
2022-08-19T05:59:29.623Z,26.36
2022-08-19T06:02:36.466Z,26.42
2022-08-19T06:05:49.527Z,26.55
2022-08-19T06:08:55.196Z,26.70
2022-08-19T06:12:01.062Z,26.65
2022-08-19T06:15:07.457Z,26.63
2022-08-19T06:18:11.914Z,26.53
2022-08-19T06:21:15.347Z,26.40
2022-08-19T06:24:21.113Z,26.40
2022-08-19T06:27:24.794Z,26.36
2022-08-19T06:30:28.011Z,26.26
2022-08-19T06:33:32.467Z,26.37
2022-08-19T06:36:38.633Z,26.44
2022-08-19T06:39:44.261Z,26.68
2022-08-19T06:42:54.330Z,26.95
2022-08-19T06:46:00.017Z,27.12
2022-08-19T06:49:06.198Z,27.32
2022-08-19T06:52:13.878Z,27.42
2022-08-19T06:55:18.481Z,27.46
2022-08-19T06:58:22.135Z,27.61
2022-08-19T07:01:25.265Z,27.61
2022-08-19T07:04:32.659Z,27.66
2022-08-19T07:07:37.482Z,27.70
2022-08-19T07:10:45.417Z,27.42
2022-08-19T07:13:49.672Z,27.14
2022-08-19T07:16:59.203Z,27.01
2022-08-19T07:20:05.037Z,27.09
2022-08-19T07:23:10.543Z,27.16
2022-08-19T07:26:27.657Z,27.31
2022-08-19T07:29:34.052Z,27.35
2022-08-19T07:32:38.409Z,27.53
2022-08-19T07:35:43.292Z,27.72
2022-08-19T07:38:49.434Z,27.95
2022-08-19T07:41:52.587Z,28.18
2022-08-19T07:44:55.717Z,28.09
2022-08-19T07:47:59.475Z,28.39
2022-08-19T07:51:07.842Z,28.40
2022-08-19T07:54:10.927Z,28.48
2022-08-19T07:57:14.003Z,28.41
2022-08-19T08:00:21.681Z,28.11
2022-08-19T08:03:42.286Z,28.10
2022-08-19T08:07:04.071Z,28.23
2022-08-19T08:10:20.549Z,28.27
2022-08-19T08:13:24.529Z,28.25
2022-08-19T08:16:30.979Z,28.26
2022-08-19T08:19:35.229Z,27.77
2022-08-19T08:23:02.089Z,28.19
2022-08-19T08:26:05.785Z,28.36
2022-08-19T08:29:13.766Z,28.57
2022-08-19T08:32:17.411Z,28.27
2022-08-19T08:35:23.075Z,27.91
2022-08-19T08:38:28.241Z,27.84
2022-08-19T08:41:46.081Z,28.59
2022-08-19T08:48:21.933Z,28.38
2022-08-19T08:51:34.977Z,28.54
2022-08-19T08:54:48.992Z,28.41
2022-08-19T08:58:03.025Z,28.22
2022-08-19T09:01:06.306Z,28.25
2022-08-19T09:04:09.930Z,28.14
2022-08-19T09:07:34.960Z,27.97
2022-08-19T09:10:45.550Z,28.12
2022-08-19T09:14:34.904Z,27.94
2022-08-19T09:17:37.021Z,27.84
2022-08-19T09:20:42.566Z,28.57
2022-08-19T09:23:46.538Z,28.43
2022-08-19T09:26:55.562Z,28.45
2022-08-19T09:30:00.578Z,28.41
2022-08-19T09:33:05.607Z,28.26
2022-08-19T09:36:11.690Z,28.27
2022-08-19T09:39:16.416Z,28.19
2022-08-19T09:42:30.057Z,28.15
2022-08-19T09:45:34.566Z,28.25
2022-08-19T09:48:38.108Z,28.32
2022-08-19T09:51:41.670Z,28.43
2022-08-19T09:54:44.794Z,28.37
2022-08-19T09:57:57.718Z,28.31
2022-08-19T10:01:02.026Z,28.19
2022-08-19T10:04:19.735Z,28.26
2022-08-19T10:07:36.015Z,28.19
2022-08-19T10:10:39.621Z,28.32
2022-08-19T10:13:47.967Z,28.44
2022-08-19T10:16:52.544Z,28.45
2022-08-19T10:19:56.282Z,28.35
2022-08-19T10:23:00.924Z,28.87
2022-08-19T10:26:07.034Z,29.12
2022-08-19T10:29:12.797Z,29.44
2022-08-19T10:32:15.962Z,29.36
2022-08-19T10:35:22.103Z,29.91
2022-08-19T10:38:31.671Z,29.76
2022-08-19T10:41:37.934Z,29.37
2022-08-19T10:44:42.474Z,29.20
2022-08-19T10:47:45.578Z,29.13
2022-08-19T10:51:08.702Z,29.07
2022-08-19T10:54:12.406Z,29.01
2022-08-19T10:57:15.575Z,28.89
2022-08-19T11:00:20.655Z,28.79
2022-08-19T11:03:24.074Z,28.62
2022-08-19T11:06:27.255Z,28.57
2022-08-19T11:09:33.923Z,28.51
2022-08-19T11:12:40.226Z,28.29
2022-08-19T11:15:46.872Z,27.81
2022-08-19T11:18:52.551Z,27.46
2022-08-19T11:21:57.616Z,27.33
2022-08-19T11:25:03.474Z,27.20
2022-08-19T11:28:07.020Z,27.17
2022-08-19T11:31:14.602Z,27.02
2022-08-19T11:34:20.922Z,26.83
2022-08-19T11:37:24.034Z,26.68
2022-08-19T11:40:27.110Z,27.57
2022-08-19T11:43:34.385Z,28.18
2022-08-19T11:46:46.576Z,28.38
2022-08-19T11:49:49.790Z,28.59
2022-08-19T11:52:55.487Z,28.57
2022-08-19T11:55:58.581Z,28.40
2022-08-19T11:59:03.114Z,28.33
2022-08-19T12:02:08.060Z,28.40
2022-08-19T12:05:12.828Z,28.28
2022-08-19T12:08:16.652Z,28.12
2022-08-19T12:11:20.185Z,28.16
2022-08-19T12:14:24.122Z,28.42
2022-08-19T12:17:29.514Z,28.50
2022-08-19T12:20:32.713Z,28.52
2022-08-19T12:23:39.725Z,28.73
2022-08-19T12:26:53.237Z,28.94
2022-08-19T12:29:56.619Z,28.82
2022-08-19T12:33:01.054Z,28.82
2022-08-19T12:36:07.193Z,28.90
2022-08-19T12:39:10.729Z,28.90
2022-08-19T12:42:16.624Z,28.46
2022-08-19T12:45:20.192Z,28.15
2022-08-19T12:48:33.274Z,27.84
2022-08-19T12:51:37.376Z,27.49
2022-08-19T12:54:40.457Z,27.29
2022-08-19T12:57:43.604Z,27.04
2022-08-19T13:00:46.716Z,26.83
2022-08-19T13:03:51.504Z,26.68
2022-08-19T13:06:54.566Z,26.39
2022-08-19T13:09:57.760Z,26.24
2022-08-19T13:13:02.715Z,26.15
2022-08-19T13:16:06.158Z,26.04
2022-08-19T13:19:11.770Z,25.91
2022-08-19T13:22:15.142Z,25.91
2022-08-19T13:25:20.521Z,25.91
2022-08-19T13:28:29.222Z,25.95
2022-08-19T13:31:51.952Z,26.07
2022-08-19T13:34:56.421Z,26.19
2022-08-19T13:37:59.574Z,26.12
2022-08-19T13:41:12.125Z,26.11
2022-08-19T13:44:16.591Z,26.13
2022-08-19T13:47:19.924Z,25.97
2022-08-19T13:50:26.966Z,25.98
2022-08-19T13:53:32.369Z,25.93
2022-08-19T13:56:35.452Z,25.77
2022-08-19T13:59:38.640Z,25.90
2022-08-19T14:02:42.419Z,25.79
2022-08-19T14:05:47.780Z,25.72
2022-08-19T14:08:54.054Z,25.73
2022-08-19T14:11:57.268Z,25.81
2022-08-19T14:23:53.077Z,26.47
2022-08-19T14:26:56.749Z,26.50
2022-08-19T14:30:00.198Z,26.61
2022-08-19T14:33:04.285Z,26.70
2022-08-19T14:36:08.113Z,26.66
2022-08-19T14:39:12.662Z,26.54
2022-08-19T14:42:16.107Z,26.44
2022-08-19T14:45:19.328Z,26.36
2022-08-19T14:48:22.573Z,26.34
2022-08-19T14:51:33.518Z,26.31
2022-08-19T14:54:37.981Z,26.23
2022-08-19T14:57:42.868Z,26.08
2022-08-19T15:00:45.951Z,26.07
2022-08-19T15:03:49.654Z,25.65
2022-08-19T15:06:52.841Z,25.72
2022-08-19T15:09:57.489Z,25.58
2022-08-19T15:13:00.514Z,25.37
2022-08-19T15:16:04.033Z,25.14
2022-08-19T15:19:07.323Z,25.15
2022-08-19T15:22:10.543Z,25.00
2022-08-19T15:25:17.060Z,25.03
2022-08-19T15:28:20.072Z,25.07
2022-08-19T15:31:28.087Z,25.21
2022-08-19T15:34:32.349Z,25.23
2022-08-19T15:37:37.385Z,25.22
2022-08-19T15:40:43.387Z,25.31
2022-08-19T15:43:46.658Z,25.21
2022-08-19T15:46:50.420Z,25.16
2022-08-19T15:49:57.717Z,25.27
2022-08-19T15:53:05.197Z,25.30
2022-08-19T15:56:10.422Z,25.32
2022-08-19T15:59:30.838Z,25.23
2022-08-19T16:02:53.456Z,25.14
2022-08-19T16:06:14.600Z,25.08
2022-08-19T16:09:24.927Z,25.27
2022-08-19T16:12:32.591Z,25.40
2022-08-19T16:15:35.704Z,25.41
2022-08-19T16:18:39.354Z,25.41
2022-08-19T16:21:43.589Z,25.41
2022-08-19T16:24:46.670Z,25.36
2022-08-19T16:28:06.161Z,25.41
2022-08-19T16:31:12.163Z,25.34
2022-08-19T16:34:15.786Z,25.47
2022-08-19T16:37:20.557Z,25.49
2022-08-19T16:40:24.948Z,25.40
2022-08-19T16:43:32.032Z,25.55
2022-08-19T16:46:37.307Z,25.30
2022-08-19T16:49:54.436Z,25.45
2022-08-19T16:52:59.006Z,25.50
2022-08-19T16:56:02.145Z,25.45
2022-08-19T16:59:06.838Z,25.52
2022-08-19T17:02:09.861Z,25.48
2022-08-19T17:05:13.528Z,25.46
2022-08-19T17:08:18.527Z,25.41
2022-08-19T17:11:22.850Z,25.37
2022-08-19T17:14:27.338Z,25.34
2022-08-19T17:17:31.061Z,25.23
2022-08-19T17:20:35.447Z,25.32
2022-08-19T17:23:43.694Z,25.35
2022-08-19T17:26:47.197Z,25.34
2022-08-19T17:29:53.036Z,25.36
2022-08-19T17:32:56.235Z,25.35
2022-08-19T17:35:59.262Z,25.41
2022-08-19T17:39:04.601Z,25.42
2022-08-19T17:42:08.385Z,25.36
2022-08-19T17:45:14.013Z,25.24
2022-08-19T17:48:17.209Z,25.20
2022-08-19T17:51:22.719Z,25.17
2022-08-19T17:54:25.991Z,25.25
2022-08-19T17:57:36.227Z,25.27
2022-08-19T18:00:53.151Z,25.33
2022-08-19T18:03:56.470Z,25.42
2022-08-19T18:07:04.448Z,25.46
2022-08-19T18:10:08.411Z,25.43
2022-08-19T18:13:17.337Z,25.42
2022-08-19T18:16:22.490Z,25.40
2022-08-19T18:19:26.885Z,25.32
2022-08-19T18:22:46.075Z,25.39
2022-08-19T18:25:49.111Z,25.34
2022-08-19T18:28:52.860Z,25.32
2022-08-19T18:31:57.937Z,25.34
2022-08-19T18:35:02.635Z,25.33
2022-08-19T18:38:25.812Z,25.32
2022-08-19T18:41:46.602Z,25.36
2022-08-19T18:45:07.324Z,25.29
2022-08-19T18:48:29.557Z,25.27
2022-08-19T18:51:33.315Z,25.36
2022-08-19T18:54:36.871Z,25.38
2022-08-19T18:57:40.024Z,25.36
2022-08-19T19:00:44.096Z,25.37
2022-08-19T19:03:50.993Z,25.09
2022-08-19T19:06:54.633Z,25.18
2022-08-19T19:09:57.905Z,25.20
2022-08-19T19:13:01.401Z,25.17
2022-08-19T19:16:04.805Z,25.16
2022-08-19T19:19:13.154Z,25.10
2022-08-19T19:22:20.961Z,25.11
2022-08-19T19:25:24.153Z,25.03
2022-08-19T19:28:29.460Z,24.96
2022-08-19T19:31:33.510Z,24.93
2022-08-19T19:34:39.019Z,24.85
2022-08-19T19:37:43.457Z,24.85
2022-08-19T19:40:46.699Z,24.90
2022-08-19T19:43:59.902Z,24.91
2022-08-19T19:47:12.991Z,25.09
2022-08-19T19:50:17.486Z,25.14
2022-08-19T19:53:20.534Z,25.03
2022-08-19T19:56:24.241Z,24.99
2022-08-19T19:59:27.398Z,25.02
2022-08-19T20:02:30.469Z,25.41
2022-08-19T20:05:34.937Z,25.75
2022-08-19T20:09:09.859Z,26.02
2022-08-19T20:12:12.949Z,26.21
2022-08-19T20:15:16.086Z,26.32
2022-08-19T20:18:19.187Z,26.40
2022-08-19T20:21:23.765Z,26.49
2022-08-19T20:24:32.501Z,26.55
2022-08-19T20:27:40.184Z,26.61
2022-08-19T20:30:47.535Z,26.65
2022-08-19T20:33:51.646Z,26.69
2022-08-19T20:36:56.151Z,26.72
2022-08-19T20:39:59.262Z,26.70
2022-08-19T20:43:02.747Z,26.63
2022-08-19T20:46:06.316Z,26.58
2022-08-19T20:49:09.788Z,26.58
2022-08-19T20:52:14.234Z,26.63
2022-08-19T20:55:17.314Z,26.59
2022-08-19T20:58:24.874Z,26.64
2022-08-19T21:01:28.140Z,26.68
2022-08-19T21:04:31.226Z,26.57
2022-08-19T21:07:38.936Z,26.66
2022-08-19T21:10:43.499Z,26.58
2022-08-19T21:13:46.559Z,26.59
2022-08-19T21:16:50.488Z,26.62
2022-08-19T21:19:53.606Z,26.65
2022-08-19T21:22:58.170Z,26.73
2022-08-19T21:26:02.470Z,26.73
2022-08-19T21:29:05.570Z,26.72
2022-08-19T21:32:11.244Z,26.75
2022-08-19T21:35:17.426Z,26.77
2022-08-19T21:38:25.063Z,26.80
2022-08-19T21:41:28.128Z,26.83
2022-08-19T21:44:31.190Z,26.88
2022-08-19T21:47:34.354Z,26.71
2022-08-19T21:50:37.434Z,26.62
2022-08-19T21:53:42.041Z,26.58
2022-08-19T21:56:47.112Z,26.56
2022-08-19T21:59:50.188Z,26.60
2022-08-19T22:02:53.291Z,26.58
2022-08-19T22:05:56.316Z,26.60
2022-08-19T22:09:00.798Z,26.47
2022-08-19T22:12:04.152Z,26.49
2022-08-19T22:15:09.165Z,26.34
2022-08-19T22:18:13.320Z,26.35
2022-08-19T22:21:16.502Z,26.35
2022-08-19T22:24:35.859Z,26.28
2022-08-19T22:27:39.116Z,26.30
2022-08-19T22:30:44.495Z,26.30
2022-08-19T22:33:47.863Z,26.32
2022-08-19T22:36:50.950Z,26.31
2022-08-19T22:39:55.580Z,26.32
2022-08-19T22:43:02.169Z,26.30
2022-08-19T22:46:06.585Z,26.32
2022-08-19T22:49:20.542Z,26.33
2022-08-19T22:52:24.318Z,26.34
2022-08-19T22:55:29.613Z,26.31
2022-08-19T22:58:32.938Z,26.27
2022-08-19T23:01:37.147Z,26.25
2022-08-19T23:04:40.352Z,26.26
2022-08-19T23:07:43.440Z,26.25
2022-08-19T23:10:56.986Z,26.28
2022-08-19T23:14:00.071Z,26.22
2022-08-19T23:17:03.170Z,26.26
2022-08-19T23:20:09.123Z,26.41
2022-08-19T23:23:18.771Z,26.37
2022-08-19T23:26:23.331Z,26.32
2022-08-19T23:29:43.758Z,26.26
2022-08-19T23:32:47.173Z,26.33
2022-08-19T23:35:50.394Z,26.24
2022-08-19T23:38:53.485Z,26.23
2022-08-19T23:41:57.952Z,26.26
2022-08-19T23:45:02.595Z,26.23
2022-08-19T23:48:07.579Z,26.18
2022-08-19T23:51:12.588Z,26.22
2022-08-19T23:54:15.683Z,26.20
2022-08-19T23:57:20.214Z,26.24
